Terminal Aerodrome Forecast
Issued by NWS Tuscon, AZ

Home | Current Version | Previous Version | Text Only | Print | Product List | Glossary On
Versions: 1 2 3 4 5 6 7 8 9 10 11 12 13 14
000
FTUS45 KTWC 261724
TAFTUS
TAF
KTUS 261724Z 2618/2718 26006KT P6SM BKN250
     FM262000 30008KT P6SM BKN250
     FM270400 22007KT P6SM FEW150 BKN250
     FM270900 15006KT P6SM SCT130 BKN250=

USA.gov is the U.S. government's official web portal to all federal, state and local government web resources and services.